createdAt,value
2018-12-12T00:02:18.358Z,76.84
2018-12-12T00:07:23.540Z,76.97
2018-12-12T00:12:26.473Z,76.77
2018-12-12T00:17:29.415Z,76.63
2018-12-12T00:22:34.176Z,76.70
2018-12-12T00:27:36.932Z,76.45
2018-12-12T00:32:39.823Z,76.34
2018-12-12T00:37:42.561Z,76.70
2018-12-12T00:42:45.297Z,76.81
2018-12-12T00:47:48.064Z,76.91
2018-12-12T00:52:50.990Z,76.60
2018-12-12T00:57:53.935Z,76.88
2018-12-12T01:02:56.841Z,76.86
2018-12-12T01:07:59.730Z,77.16
2018-12-12T01:13:02.404Z,77.00
2018-12-12T01:18:05.423Z,76.93
2018-12-12T01:23:08.276Z,77.14
2018-12-12T01:28:10.917Z,77.25
2018-12-12T01:33:13.739Z,77.38
2018-12-12T01:38:16.383Z,78.02
2018-12-12T01:43:19.163Z,77.67
2018-12-12T01:48:22.159Z,77.93
2018-12-12T01:53:25.048Z,77.81
2018-12-12T01:58:27.579Z,78.20
2018-12-12T02:03:30.436Z,77.83
2018-12-12T02:08:33.305Z,77.83
2018-12-12T02:13:36.734Z,78.02
2018-12-12T02:18:42.328Z,78.26
2018-12-12T02:23:45.101Z,78.23
2018-12-12T02:28:47.988Z,78.00
2018-12-12T02:33:51.090Z,78.54
2018-12-12T02:38:53.944Z,78.16
2018-12-12T02:43:56.973Z,78.34
2018-12-12T02:49:00.003Z,77.77
2018-12-12T02:54:02.870Z,78.08
2018-12-12T02:59:05.772Z,77.99
2018-12-12T03:04:08.604Z,78.13
2018-12-12T03:09:11.578Z,78.26
2018-12-12T03:14:14.457Z,77.91
2018-12-12T03:19:18.306Z,78.02
2018-12-12T03:24:20.977Z,77.92
2018-12-12T03:29:23.737Z,77.90
2018-12-12T03:34:26.813Z,77.98
2018-12-12T03:39:30.030Z,77.60
2018-12-12T03:44:32.801Z,77.79
2018-12-12T03:49:35.542Z,77.77
2018-12-12T03:54:38.264Z,77.47
2018-12-12T03:59:40.995Z,77.38
2018-12-12T04:04:43.867Z,77.63
2018-12-12T04:09:46.597Z,77.74
2018-12-12T04:14:49.188Z,77.57
2018-12-12T04:19:51.883Z,77.67
2018-12-12T04:24:55.117Z,77.26
2018-12-12T04:29:57.732Z,77.33
2018-12-12T04:35:00.892Z,77.24
2018-12-12T04:40:05.395Z,77.04
2018-12-12T04:45:08.392Z,77.18
2018-12-12T04:50:11.256Z,76.90
2018-12-12T04:55:14.106Z,76.94
2018-12-12T05:00:16.943Z,77.06
2018-12-12T05:05:19.814Z,77.18
2018-12-12T05:10:22.786Z,76.99
2018-12-12T05:15:25.710Z,76.64
2018-12-12T05:20:28.495Z,77.04
2018-12-12T05:25:31.408Z,76.57
2018-12-12T05:30:34.783Z,76.51
2018-12-12T05:35:37.904Z,76.49
2018-12-12T05:40:41.140Z,76.21
2018-12-12T05:45:44.083Z,76.19
2018-12-12T05:50:46.865Z,75.92
2018-12-12T05:55:49.536Z,76.22
2018-12-12T06:00:52.301Z,76.02
2018-12-12T06:05:55.040Z,76.21
2018-12-12T06:10:57.728Z,76.22
2018-12-12T06:16:00.353Z,76.31
2018-12-12T06:21:03.183Z,76.19
2018-12-12T06:26:06.159Z,76.10
2018-12-12T06:31:09.271Z,76.44
2018-12-12T06:36:12.133Z,76.48
2018-12-12T06:41:15.193Z,76.35
2018-12-12T06:46:19.287Z,76.07
2018-12-12T06:51:22.204Z,76.52
2018-12-12T06:56:25.175Z,76.36
2018-12-12T07:01:28.203Z,75.97
2018-12-12T07:06:31.054Z,76.32
2018-12-12T07:11:33.916Z,76.20
2018-12-12T07:16:36.804Z,76.33
2018-12-12T07:21:39.888Z,76.49
2018-12-12T07:26:43.536Z,76.28
2018-12-12T07:31:46.528Z,76.59
2018-12-12T07:36:49.463Z,76.36
2018-12-12T07:41:52.285Z,76.13
2018-12-12T07:46:57.616Z,76.29
2018-12-12T07:52:02.460Z,76.31
2018-12-12T07:57:05.441Z,76.34
2018-12-12T08:02:08.497Z,76.83
2018-12-12T08:07:11.506Z,76.44
2018-12-12T08:12:14.421Z,76.83
2018-12-12T08:17:17.240Z,76.74
2018-12-12T08:22:20.185Z,77.16
2018-12-12T08:27:23.325Z,76.99
2018-12-12T08:32:26.279Z,76.37
2018-12-12T08:37:29.254Z,76.81
2018-12-12T08:42:32.061Z,76.60
2018-12-12T08:47:34.749Z,76.87
2018-12-12T08:52:38.753Z,76.85
2018-12-12T08:57:41.524Z,77.37
2018-12-12T09:02:44.504Z,77.26
2018-12-12T09:07:47.456Z,76.98
2018-12-12T09:12:50.209Z,76.99
2018-12-12T09:17:52.924Z,77.54
2018-12-12T09:22:55.660Z,77.13
2018-12-12T09:27:58.564Z,77.31
2018-12-12T09:33:03.504Z,76.99
2018-12-12T09:38:12.346Z,76.96
2018-12-12T09:43:15.097Z,77.18
2018-12-12T09:48:19.714Z,77.05
2018-12-12T09:53:22.992Z,77.14
2018-12-12T09:58:25.842Z,76.85
2018-12-12T10:03:31.270Z,77.02
2018-12-12T10:08:33.666Z,77.15
2018-12-12T10:13:36.545Z,76.96
2018-12-12T10:18:39.748Z,77.00
2018-12-12T10:23:42.608Z,76.96
2018-12-12T10:28:45.374Z,77.33
2018-12-12T10:33:48.525Z,76.69
2018-12-12T10:38:51.393Z,76.50
2018-12-12T10:43:54.312Z,76.44
2018-12-12T10:48:57.964Z,76.59
2018-12-12T10:54:00.949Z,76.43
2018-12-12T10:59:03.763Z,76.58
2018-12-12T11:04:08.019Z,75.95
2018-12-12T11:09:11.100Z,75.97
2018-12-12T11:14:13.827Z,75.97
2018-12-12T11:19:16.412Z,75.86
2018-12-12T11:24:19.061Z,75.81
2018-12-12T11:29:21.928Z,75.48
2018-12-12T11:34:24.696Z,75.31
2018-12-12T11:39:27.507Z,75.43
2018-12-12T11:44:30.352Z,74.89
2018-12-12T11:49:32.977Z,74.76
2018-12-12T11:54:35.966Z,74.59
2018-12-12T11:59:38.609Z,74.64
2018-12-12T12:04:41.512Z,74.49
2018-12-12T12:09:44.297Z,74.18
2018-12-12T12:14:47.253Z,73.89
2018-12-12T12:19:50.229Z,74.06
2018-12-12T12:24:53.107Z,73.76
2018-12-12T12:29:56.042Z,73.48
2018-12-12T12:35:00.143Z,73.07
2018-12-12T12:40:05.810Z,73.20
2018-12-12T12:45:08.792Z,73.48
2018-12-12T12:50:11.656Z,73.23
2018-12-12T12:55:15.611Z,73.14
2018-12-12T13:00:18.300Z,72.70
2018-12-12T13:05:21.253Z,72.69
2018-12-12T13:10:24.241Z,72.21
2018-12-12T13:15:27.350Z,72.34
2018-12-12T13:20:30.214Z,72.65
2018-12-12T13:25:33.238Z,72.06
2018-12-12T13:30:36.263Z,71.44
2018-12-12T13:35:39.043Z,71.57
2018-12-12T13:40:41.864Z,71.70
2018-12-12T13:45:44.950Z,71.38
2018-12-12T13:50:47.857Z,71.34
2018-12-12T13:55:50.794Z,71.03
2018-12-12T14:00:55.478Z,70.87
2018-12-12T14:05:58.472Z,71.25
2018-12-12T14:11:01.697Z,70.72
2018-12-12T14:16:05.006Z,70.74
2018-12-12T14:21:07.957Z,70.62
2018-12-12T14:26:10.987Z,70.60
2018-12-12T14:31:13.943Z,71.16
2018-12-12T14:36:16.780Z,71.04
2018-12-12T14:41:19.547Z,71.43
2018-12-12T14:46:22.381Z,71.61
2018-12-12T14:51:25.141Z,71.97
2018-12-12T14:56:28.225Z,71.87
2018-12-12T15:01:32.095Z,71.99
2018-12-12T15:06:35.011Z,72.02
2018-12-12T15:11:37.972Z,72.81
2018-12-12T15:16:40.861Z,72.61
2018-12-12T15:21:43.728Z,72.45
2018-12-12T15:26:46.516Z,72.28
2018-12-12T15:31:49.427Z,72.67
2018-12-12T15:36:52.317Z,72.96
2018-12-12T15:41:55.762Z,72.76
2018-12-12T15:46:58.597Z,73.17
2018-12-12T15:52:01.405Z,73.01
2018-12-12T15:57:04.299Z,73.38
2018-12-12T16:02:07.266Z,73.09
2018-12-12T16:07:10.363Z,73.53
2018-12-12T16:12:13.525Z,73.44
2018-12-12T16:17:16.558Z,73.00
2018-12-12T16:22:19.373Z,73.25
2018-12-12T16:27:22.376Z,73.05
2018-12-12T16:32:25.328Z,73.46
2018-12-12T16:37:28.148Z,73.08
2018-12-12T16:42:31.104Z,73.59
2018-12-12T16:47:35.921Z,73.56
2018-12-12T16:52:38.698Z,73.33
2018-12-12T16:57:41.381Z,73.25
2018-12-12T17:02:44.289Z,73.49
2018-12-12T17:07:47.231Z,73.66
2018-12-12T17:12:50.257Z,74.11
2018-12-12T17:17:53.288Z,74.04
2018-12-12T17:22:56.040Z,73.75
2018-12-12T17:27:58.762Z,73.79
2018-12-12T17:33:01.751Z,74.30
2018-12-12T17:38:04.894Z,73.98
2018-12-12T17:43:07.823Z,74.30
2018-12-12T17:48:10.706Z,74.58
2018-12-12T17:53:14.021Z,74.66
2018-12-12T17:58:16.916Z,74.43
2018-12-12T18:03:21.258Z,74.20
2018-12-12T18:08:43.850Z,74.79
2018-12-12T18:13:46.912Z,74.80
2018-12-12T18:18:51.875Z,74.70
2018-12-12T18:23:54.847Z,74.70
2018-12-12T18:28:57.651Z,74.64
2018-12-12T18:34:00.620Z,74.47
2018-12-12T18:39:07.059Z,74.65
2018-12-12T18:44:11.754Z,74.77
2018-12-12T18:49:14.597Z,74.82
2018-12-12T18:54:19.587Z,74.80
2018-12-12T18:59:24.486Z,74.96
2018-12-12T19:04:27.449Z,74.85
2018-12-12T19:14:48.526Z,74.87
2018-12-12T19:19:52.303Z,74.87
2018-12-12T19:24:55.203Z,75.28
2018-12-12T19:29:58.044Z,74.84
2018-12-12T19:35:00.961Z,75.04
2018-12-12T19:40:04.910Z,75.04
2018-12-12T19:45:08.225Z,74.86
2018-12-12T19:50:11.308Z,74.92
2018-12-12T19:55:14.341Z,74.66
2018-12-12T20:00:17.121Z,75.17
2018-12-12T20:05:19.929Z,74.91
2018-12-12T20:10:22.882Z,74.77
2018-12-12T20:15:31.902Z,75.13
2018-12-12T20:20:34.683Z,74.91
2018-12-12T20:25:37.447Z,75.21
2018-12-12T20:30:40.743Z,75.18
2018-12-12T20:35:47.926Z,75.11
2018-12-12T20:40:48.516Z,75.02
2018-12-12T20:45:51.562Z,75.24
2018-12-12T20:50:54.444Z,75.31
2018-12-12T20:55:57.384Z,74.95
2018-12-12T21:01:01.475Z,75.42
2018-12-12T21:06:05.854Z,75.54
2018-12-12T21:11:09.048Z,75.31
2018-12-12T21:16:12.823Z,75.43
2018-12-12T21:21:15.810Z,75.48
2018-12-12T21:26:19.499Z,75.43
2018-12-12T21:31:22.346Z,75.63
2018-12-12T21:41:38.291Z,75.67
2018-12-12T21:46:42.721Z,75.82
2018-12-12T21:51:45.873Z,75.77
2018-12-12T21:56:48.493Z,75.64
2018-12-12T22:07:04.291Z,75.36
2018-12-12T22:12:07.212Z,75.69
2018-12-12T22:17:10.405Z,75.37
2018-12-12T22:22:14.251Z,75.80
2018-12-12T22:27:17.043Z,75.58
2018-12-12T22:32:19.852Z,75.73
2018-12-12T22:37:22.766Z,75.46
2018-12-12T22:42:25.516Z,75.72
2018-12-12T22:47:28.255Z,75.59
2018-12-12T22:52:31.047Z,75.72
2018-12-12T22:57:33.998Z,75.49
2018-12-12T23:02:36.948Z,75.86
2018-12-12T23:07:39.869Z,75.95
2018-12-12T23:12:42.889Z,75.83
2018-12-12T23:17:45.666Z,75.97
2018-12-12T23:22:49.609Z,76.15
2018-12-12T23:27:53.309Z,75.91
2018-12-12T23:32:56.236Z,75.95
2018-12-12T23:37:58.888Z,75.86
2018-12-12T23:43:01.706Z,76.22
2018-12-12T23:48:04.885Z,75.97
2018-12-12T23:53:07.681Z,76.27
2018-12-12T23:58:10.283Z,76.28
